Radome Status


Time Cell Pressure Wind mph Temp Com Gen Blower 1 Blower 2 Blower 3 Trigger Alarms Txt
Local net InWc Avg Peak Avg F Pow Pow State/Spd/Secs State/Spd/Secs HowOn/AcOut/secs Event Present Cnt
12:00:21OFF 2.56 2.3 11.7 16.2 72.49ONOFFDwn/0/0Opr/1/251764-AC-OFF/0///0
12:01:21OFF 2.53 2.3 10.5 12.1 72.60ONOFFDwn/0/0Opr/1/251824-AC-OFF/0///0
12:02:26OFF 2.56 2.4 9.2 12.4 72.88ONOFFDwn/0/0Opr/1/251889-AC-OFF/0///0
12:03:30OFF 2.57 2.3 18.1 24.4 73.31ONOFFDwn/0/0Opr/1/251954-AC-OFF/0///0
12:04:31OFF 2.58 2.4 13.8 19.6 73.68ONOFFDwn/0/0Opr/1/252014-AC-OFF/0///0
12:05:31OFF 2.58 2.4 15.6 19.2 73.61ONOFFDwn/0/0Opr/1/252074-AC-OFF/0///0
12:06:36OFF 2.59 2.4 15.0 19.2 73.22ONOFFDwn/0/0Opr/1/252139-AC-OFF/0///0
12:07:36OFF 2.53 2.3 12.4 16.5 73.04ONOFFDwn/0/0Opr/1/252200-AC-OFF/0///0
12:08:37OFF 2.60 2.4 14.7 17.5 73.23ONOFFDwn/0/0Opr/1/252260-AC-OFF/0///0
12:09:37OFF 2.60 2.4 14.8 18.2 73.44ONOFFDwn/0/0Opr/1/252320-AC-OFF/0///0
12:10:41OFF 2.57 2.4 11.6 15.5 73.46ONOFFDwn/0/0Opr/1/252385-AC-OFF/0///0
12:11:42OFF 2.52 2.3 8.8 10.3 73.66ONOFFDwn/0/0Opr/1/252446-AC-OFF/0///0
12:12:43OFF 2.56 2.3 12.3 19.9 74.00ONOFFDwn/0/0Opr/1/252506-AC-OFF/0///0
12:13:43OFF 2.51 2.3 14.6 17.5 74.14ONOFFDwn/0/0Opr/1/252566-AC-OFF/0///0
12:14:47OFF 2.56 2.3 12.4 14.8 73.87ONOFFDwn/0/0Opr/1/252631-AC-OFF/0///0
12:15:47OFF 2.57 2.4 12.4 16.8 73.80ONOFFDwn/0/0Opr/1/252691-AC-OFF/0///0
12:16:48OFF 2.57 2.4 15.3 19.9 73.94ONOFFDwn/0/0Opr/1/252751-AC-OFF/0///0
12:17:49OFF 2.58 2.4 12.6 16.5 74.04ONOFFDwn/0/0Opr/1/252812-AC-OFF/0///0
12:18:53OFF 2.55 2.3 10.6 12.7 73.94ONOFFDwn/0/0Opr/1/252877-AC-OFF/0///0
12:19:53OFF 2.54 2.3 9.6 13.8 73.86ONOFFDwn/0/0Opr/1/252937-AC-OFF/0///0
12:20:54OFF 2.52 2.3 7.4 9.7 73.99ONOFFDwn/0/0Opr/1/252997-AC-OFF/0///0
12:21:54OFF 2.52 2.3 7.8 11.7 73.99ONOFFDwn/0/0Opr/1/253057-AC-OFF/0///0
12:22:58OFF 2.54 2.3 9.0 13.4 74.09ONOFFDwn/0/0Opr/1/253122-AC-OFF/0///0
12:23:59OFF 2.57 2.4 10.1 14.1 74.12ONOFFDwn/0/0Opr/1/253182-AC-OFF/0///0
12:24:59OFF 2.53 2.3 9.2 12.4 73.99ONOFFDwn/0/0Opr/1/253242-AC-OFF/0///0
12:26:00OFF 2.52 2.3 13.1 14.8 74.16ONOFFDwn/0/0Opr/1/253303-AC-OFF/0///0
12:27:00OFF 2.52 2.3 12.3 16.8 74.54ONOFFDwn/0/0Opr/1/253364-AC-OFF/0///0
12:28:00OFF 2.56 2.3 14.8 17.2 75.01ONOFFDwn/0/0Opr/1/253424-AC-OFF/0///0
12:29:01OFF 2.56 2.3 13.7 15.1 74.71ONOFFDwn/0/0Opr/1/253484-AC-OFF/0///0
12:30:02OFF 2.56 2.3 11.6 14.8 74.36ONOFFDwn/0/0Opr/1/253545-AC-OFF/0///0
12:31:02OFF 2.54 2.3 9.4 12.1 74.17ONOFFDwn/0/0Opr/1/253605-AC-OFF/0///0
12:32:06OFF 2.51 2.3 8.5 10.7 73.96ONOFFDwn/0/0Opr/1/253670-AC-OFF/0///0
12:33:07OFF 2.52 2.3 6.0 9.0 73.87ONOFFDwn/0/0Opr/1/253730-AC-OFF/0///0
12:34:07OFF 2.52 2.3 5.5 9.3 74.23ONOFFDwn/0/0Opr/1/253790-AC-OFF/0///0
12:35:07OFF 2.51 2.3 3.8 5.9 74.63ONOFFDwn/0/0Opr/1/253850-AC-OFF/0///0
12:36:07OFF 2.52 2.3 4.5 5.6 74.80ONOFFDwn/0/0Opr/1/253911-AC-OFF/0///0
12:37:08OFF 2.51 2.3 6.7 11.7 74.78ONOFFDwn/0/0Opr/1/253971-AC-OFF/0///0
12:38:13OFF 2.52 2.3 8.2 10.7 74.65ONOFFDwn/0/0Opr/1/254036-AC-OFF/0///0
12:39:17OFF 2.52 2.3 7.9 11.0 74.43ONOFFDwn/0/0Opr/1/254101-AC-OFF/0///0
12:40:17OFF 2.50 2.3 6.2 7.6 74.23ONOFFDwn/0/0Opr/1/254161-AC-OFF/0///0
12:41:18OFF 2.50 2.3 5.8 7.6 74.31ONOFFDwn/0/0Opr/1/254221-AC-OFF/0///0
12:42:19OFF 2.56 2.3 12.5 16.5 74.51ONOFFDwn/0/0Opr/1/254282-AC-OFF/0///0
12:43:23OFF 2.55 2.3 11.8 14.1 74.40ONOFFDwn/0/0Opr/1/254347-AC-OFF/0///0
12:44:23OFF 2.55 2.3 11.6 13.8 74.24ONOFFDwn/0/0Opr/1/254407-AC-OFF/0///0
12:45:24OFF 2.52 2.3 12.2 16.5 74.44ONOFFDwn/0/0Opr/1/254467-AC-OFF/0///0
12:46:24OFF 2.55 2.3 12.1 14.1 74.82ONOFFDwn/0/0Opr/1/254527-AC-OFF/0///0
12:47:24OFF 2.56 2.3 12.8 14.5 74.89ONOFFDwn/0/0Opr/1/254588-AC-OFF/0///0
12:48:25OFF 2.53 2.3 9.7 14.1 74.99ONOFFDwn/0/0Opr/1/254648-AC-OFF/0///0
12:49:25OFF 2.52 2.3 11.5 13.1 75.18ONOFFDwn/0/0Opr/1/254708-AC-OFF/0///0
12:50:30OFF 2.54 2.3 9.7 12.4 75.40ONOFFDwn/0/0Opr/1/254773-AC-OFF/0///0
12:51:34OFF 2.53 2.3 9.2 13.8 75.34ONOFFDwn/0/0Opr/1/254838-AC-OFF/0///0
12:52:34OFF 2.48 2.2 9.7 10.7 75.38ONOFFDwn/0/0Opr/1/254898-AC-OFF/0///0
12:53:35OFF 2.49 2.3 7.6 10.3 75.66ONOFFDwn/0/0Opr/1/254958-AC-OFF/0///0
12:54:35OFF 2.50 2.3 6.1 10.0 75.85ONOFFDwn/0/0Opr/1/255018-AC-OFF/0///0
12:55:35OFF 2.52 2.3 9.8 13.4 76.15ONOFFDwn/0/0Opr/1/255079-AC-OFF/0///0
12:56:36OFF 2.57 2.3 9.7 14.8 76.21ONOFFDwn/0/0Opr/1/255139-AC-OFF/0///0
12:57:36OFF 2.52 2.3 9.2 12.7 76.00ONOFFDwn/0/0Opr/1/255199-AC-OFF/0///0
12:58:41OFF 2.52 2.3 9.2 12.7 75.78ONOFFDwn/0/0Opr/1/255264-AC-OFF/0///0
12:59:45OFF 2.51 2.3 7.7 10.3 75.80ONOFFDwn/0/0Opr/1/255329-AC-OFF/0///0
13:00:46OFF 2.50 2.3 5.4 7.3 75.74ONOFFDwn/0/0Opr/1/255389-AC-OFF/0///0
13:01:47OFF 2.51 2.3 5.1 6.2 75.86ONOFFDwn/0/0Opr/1/255450-AC-OFF/0///0
13:02:47OFF 2.50 2.3 5.8 8.6 75.94ONOFFDwn/0/0Opr/1/255510-AC-OFF/0///0
13:03:47OFF 2.50 2.3 3.6 5.6 75.95ONOFFDwn/0/0Opr/1/255571-AC-OFF/0///0
13:04:47OFF 2.50 2.3 2.7 6.2 76.19ONOFFDwn/0/0Opr/1/255631-AC-OFF/0///0
13:05:48OFF 2.48 2.2 6.4 9.7 76.70ONOFFDwn/0/0Opr/1/255691-AC-OFF/0///0
13:06:48OFF 2.52 2.3 11.0 14.1 76.84ONOFFDwn/0/0Opr/1/255751-AC-OFF/0///0
13:07:48OFF 2.50 2.3 11.9 14.8 76.68ONOFFDwn/0/0Opr/1/255811-AC-OFF/0///0
13:08:52OFF 2.52 2.3 12.6 16.8 76.72ONOFFDwn/0/0Opr/1/255876-AC-OFF/0///0
13:09:52OFF 2.53 2.3 16.4 19.6 76.55ONOFFDwn/0/0Opr/1/255936-AC-OFF/0///0
13:10:53OFF 2.52 2.3 14.8 17.5 76.51ONOFFDwn/0/0Opr/1/255996-AC-OFF/0///0
13:11:53OFF 2.50 2.3 11.5 14.8 76.41ONOFFDwn/0/0Opr/1/256056-AC-OFF/0///0
13:12:57OFF 2.50 2.3 9.2 12.1 76.03ONOFFDwn/0/0Opr/1/256121-AC-OFF/0///0
13:13:58OFF 2.50 2.3 6.0 9.0 75.59ONOFFDwn/0/0Opr/1/256181-AC-OFF/0///0
13:14:58OFF 2.50 2.3 3.3 4.9 75.37ONOFFDwn/0/0Opr/1/256241-AC-OFF/0///0
13:15:58OFF 2.50 2.3 1.9 3.8 75.21ONOFFDwn/0/0Opr/1/256302-AC-OFF/0///0
13:16:58OFF 2.50 2.3 2.5 3.2 75.23ONOFFDwn/0/0Opr/1/256362-AC-OFF/0///0
13:17:59OFF 2.50 2.3 1.5 3.2 75.31ONOFFDwn/0/0Opr/1/256422-AC-OFF/0///0
13:18:59OFF 2.51 2.3 1.0 1.8 75.52ONOFFDwn/0/0Opr/1/256482-AC-OFF/0///0
13:20:04OFF 2.50 2.3 1.3 2.5 75.70ONOFFDwn/0/0Opr/1/256547-AC-OFF/0///0
13:21:08OFF 2.50 2.3 2.9 8.6 75.94ONOFFDwn/0/0Opr/1/256612-AC-OFF/0///0
13:22:09OFF 2.46 2.2 6.0 7.9 76.23ONOFFDwn/0/0Opr/1/256672-AC-OFF/0///0
13:23:09OFF 2.48 2.2 4.8 6.9 76.52ONOFFDwn/0/0Opr/1/256732-AC-OFF/0///0
13:24:14OFF 2.49 2.3 5.4 7.3 76.82ONOFFDwn/0/0Opr/1/256797-AC-OFF/0///0
13:25:14OFF 2.50 2.3 8.5 10.0 76.68ONOFFDwn/0/0Opr/1/256858-AC-OFF/0///0
13:26:15OFF 2.48 2.2 6.8 10.0 76.51ONOFFDwn/0/0Opr/1/256918-AC-OFF/0///0
13:27:15OFF 2.50 2.3 6.8 11.4 76.71ONOFFDwn/0/0Opr/1/256978-AC-OFF/0///0
13:28:19OFF 2.50 2.3 10.4 12.1 76.94ONOFFDwn/0/0Opr/1/257043-AC-OFF/0///0
13:29:19OFF 2.50 2.2 6.6 10.0 77.18ONOFFDwn/0/0Opr/1/257103-AC-OFF/0///0
13:30:20OFF 2.52 2.3 9.1 12.1 77.64ONOFFDwn/0/0Opr/1/257163-AC-OFF/0///0
13:31:20OFF 2.50 2.3 12.9 15.8 77.80ONOFFDwn/0/0Opr/1/257223-AC-OFF/0///0
13:32:25OFF 2.51 2.3 11.1 13.1 77.46ONOFFDwn/0/0Opr/1/257288-AC-OFF/0///0


File ends on 20140423
Logs also available for previous period,
or for other periods.

Blower States: Reseting, Stopped, Starting, Testing, Operating, Faulted, OffLine

Comments/Questions